createdAt,value
2017-04-12T00:00:20.120Z,59.70
2017-04-12T00:01:20.121Z,60.00
2017-04-12T00:02:20.049Z,60.00
2017-04-12T00:03:19.979Z,60.10
2017-04-12T00:04:19.925Z,60.40
2017-04-12T00:05:19.869Z,60.50
2017-04-12T00:06:19.925Z,61.70
2017-04-12T00:07:19.830Z,61.70
2017-04-12T00:08:19.749Z,62.00
2017-04-12T00:09:19.695Z,61.90
2017-04-12T00:10:19.622Z,61.70
2017-04-12T00:11:19.553Z,61.90
2017-04-12T00:12:19.486Z,62.20
2017-04-12T00:13:19.956Z,62.20
2017-04-12T00:14:20.627Z,62.30
2017-04-12T00:15:20.662Z,62.00
2017-04-12T00:16:20.795Z,62.00
2017-04-12T00:17:21.470Z,62.50
2017-04-12T00:18:21.389Z,62.20
2017-04-12T00:19:21.325Z,62.70
2017-04-12T00:20:21.266Z,62.50
2017-04-12T00:21:21.188Z,62.60
2017-04-12T00:22:21.092Z,62.50
2017-04-12T00:23:21.051Z,62.60
2017-04-12T00:24:20.958Z,62.70
2017-04-12T00:25:20.901Z,63.20
2017-04-12T00:26:20.819Z,63.20
2017-04-12T00:27:20.869Z,63.30
2017-04-12T00:28:21.542Z,63.60
2017-04-12T00:29:21.472Z,63.80
2017-04-12T00:30:21.679Z,63.70
2017-04-12T00:31:21.616Z,64.00
2017-04-12T00:32:21.529Z,64.30
2017-04-12T00:33:21.445Z,64.60
2017-04-12T00:34:21.369Z,65.00
2017-04-12T00:35:21.384Z,65.50
2017-04-12T00:36:21.297Z,65.60
2017-04-12T00:37:21.242Z,66.10
2017-04-12T00:38:21.205Z,66.60
2017-04-12T00:39:21.118Z,66.50
2017-04-12T00:40:21.691Z,67.30
2017-04-12T00:41:21.606Z,67.50
2017-04-12T00:42:21.602Z,67.70
2017-04-12T00:43:21.591Z,68.00
2017-04-12T00:44:21.506Z,68.20
2017-04-12T00:45:21.450Z,68.60
2017-04-12T00:46:21.372Z,68.80
2017-04-12T00:47:21.435Z,69.20
2017-04-12T00:48:21.362Z,69.30
2017-04-12T00:49:21.273Z,69.50
2017-04-12T00:50:21.178Z,69.30
2017-04-12T00:51:21.106Z,69.50
2017-04-12T00:52:21.011Z,69.60
2017-04-12T00:53:21.760Z,69.60
2017-04-12T00:54:22.367Z,69.70
2017-04-12T00:55:23.022Z,69.90
2017-04-12T00:56:22.937Z,70.00
2017-04-12T00:57:22.894Z,69.80
2017-04-12T00:58:22.814Z,69.80
2017-04-12T00:59:22.761Z,70.00
2017-04-12T01:00:22.745Z,69.80
2017-04-12T01:01:22.721Z,69.70
2017-04-12T01:02:23.398Z,69.60
2017-04-12T01:03:23.313Z,69.50
2017-04-12T01:04:23.259Z,69.80
2017-04-12T01:05:23.213Z,70.40
2017-04-12T01:06:23.166Z,69.60
2017-04-12T01:07:23.817Z,69.90
2017-04-12T01:08:23.766Z,69.80
2017-04-12T01:09:23.678Z,69.70
2017-04-12T01:10:23.634Z,69.80
2017-04-12T01:11:23.569Z,69.90
2017-04-12T01:12:23.502Z,70.00
2017-04-12T01:13:24.119Z,70.00
2017-04-12T01:14:24.041Z,70.00
2017-04-12T01:15:24.000Z,69.90
2017-04-12T01:16:24.009Z,70.20
2017-04-12T01:17:23.953Z,69.80
2017-04-12T01:18:24.589Z,69.80
2017-04-12T01:19:24.485Z,70.90
2017-04-12T01:20:25.141Z,69.70
2017-04-12T01:21:25.126Z,69.70
2017-04-12T01:22:25.100Z,70.00
2017-04-12T01:23:25.030Z,70.10
2017-04-12T01:24:24.913Z,70.20
2017-04-12T01:25:24.862Z,70.20
2017-04-12T01:26:24.791Z,70.10
2017-04-12T01:27:24.709Z,69.70
2017-04-12T01:28:24.643Z,69.90
2017-04-12T01:29:25.318Z,69.90
2017-04-12T01:30:25.227Z,69.90
2017-04-12T01:31:25.165Z,69.90
2017-04-12T01:32:25.805Z,69.50
2017-04-12T01:33:25.706Z,69.70
2017-04-12T01:34:25.666Z,69.90
2017-04-12T01:35:25.582Z,69.70
2017-04-12T01:36:26.518Z,69.70
2017-04-12T01:37:26.497Z,69.80
2017-04-12T01:38:26.406Z,69.80
2017-04-12T01:39:26.313Z,69.90
2017-04-12T01:40:26.219Z,69.80
2017-04-12T01:41:26.137Z,69.30
2017-04-12T01:42:26.159Z,69.40
2017-04-12T01:43:26.069Z,69.30
2017-04-12T01:44:26.755Z,69.50
2017-04-12T01:45:26.691Z,69.30
2017-04-12T01:46:26.573Z,69.30
2017-04-12T01:47:26.541Z,69.40
2017-04-12T01:48:26.528Z,69.60
2017-04-12T01:49:30.809Z,69.40
2017-04-12T01:50:31.477Z,69.10
2017-04-12T01:51:31.377Z,69.50
2017-04-12T01:52:31.335Z,69.30
2017-04-12T01:53:31.269Z,69.00
2017-04-12T01:54:31.249Z,69.20
2017-04-12T01:55:31.185Z,69.00
2017-04-12T01:56:31.104Z,68.80
2017-04-12T01:57:31.065Z,68.70
2017-04-12T01:58:30.953Z,68.70
2017-04-12T01:59:30.869Z,68.70
2017-04-12T02:00:30.768Z,68.90
2017-04-12T02:01:31.471Z,69.20
2017-04-12T02:02:31.385Z,69.10
2017-04-12T02:03:31.318Z,69.20
2017-04-12T02:04:32.011Z,69.20
2017-04-12T02:05:32.222Z,69.10
2017-04-12T02:06:32.137Z,69.20
2017-04-12T02:07:32.169Z,69.20
2017-04-12T02:08:32.877Z,69.00
2017-04-12T02:09:32.797Z,69.00
2017-04-12T02:10:33.534Z,69.30
2017-04-12T02:11:34.201Z,69.30
2017-04-12T02:12:34.148Z,69.60
2017-04-12T02:13:34.113Z,69.50
2017-04-12T02:14:34.008Z,69.40
2017-04-12T02:15:33.949Z,69.40
2017-04-12T02:16:33.867Z,69.60
2017-04-12T02:17:34.566Z,69.10
2017-04-12T02:18:34.489Z,69.00
2017-04-12T02:19:34.421Z,69.40
2017-04-12T02:20:34.341Z,69.40
2017-04-12T02:21:34.308Z,69.20
2017-04-12T02:22:34.318Z,69.30
2017-04-12T02:23:34.973Z,69.00
2017-04-12T02:24:34.922Z,69.30
2017-04-12T02:25:34.833Z,69.40
2017-04-12T02:26:34.749Z,69.40
2017-04-12T02:27:34.661Z,69.10
2017-04-12T02:28:34.598Z,70.00
2017-04-12T02:29:34.493Z,69.40
2017-04-12T02:30:34.402Z,69.30
2017-04-12T02:31:34.309Z,69.30
2017-04-12T02:32:34.601Z,69.50
2017-04-12T02:33:33.745Z,69.40
2017-04-12T02:34:34.663Z,69.40
2017-04-12T02:35:34.624Z,69.70
2017-04-12T02:36:35.263Z,69.20
2017-04-12T02:37:35.249Z,69.00
2017-04-12T02:38:35.153Z,69.30
2017-04-12T02:39:35.081Z,68.90
2017-04-12T02:40:35.003Z,69.20
2017-04-12T02:41:34.889Z,69.00
2017-04-12T02:42:34.830Z,69.30
2017-04-12T02:43:34.775Z,69.30
2017-04-12T02:44:34.756Z,69.50
2017-04-12T02:45:34.628Z,69.30
2017-04-12T02:46:34.990Z,69.60
2017-04-12T02:47:35.623Z,69.40
2017-04-12T02:48:35.603Z,69.30
2017-04-12T02:49:35.525Z,69.30
2017-04-12T02:50:36.225Z,69.40
2017-04-12T02:51:36.162Z,69.70
2017-04-12T02:52:36.090Z,69.60
2017-04-12T02:53:36.105Z,69.50
2017-04-12T02:54:36.026Z,69.60
2017-04-12T02:55:35.919Z,69.80
2017-04-12T02:56:35.875Z,70.10
2017-04-12T02:57:35.810Z,70.00
2017-04-12T02:58:35.758Z,70.30
2017-04-12T02:59:35.675Z,70.10
2017-04-12T03:00:35.602Z,70.10
2017-04-12T03:01:35.524Z,70.50
2017-04-12T03:02:35.454Z,70.60
2017-04-12T03:03:35.342Z,70.40
2017-04-12T03:04:35.246Z,70.60
2017-04-12T03:05:35.171Z,70.70
2017-04-12T03:06:35.111Z,70.80
2017-04-12T03:07:35.024Z,70.50
2017-04-12T03:08:35.701Z,70.80
2017-04-12T03:09:35.675Z,70.70
2017-04-12T03:10:35.598Z,70.90
2017-04-12T03:11:35.529Z,71.70
2017-04-12T03:12:35.452Z,71.00
2017-04-12T03:13:35.348Z,70.90
2017-04-12T03:14:35.296Z,70.80
2017-04-12T03:15:35.222Z,71.00
2017-04-12T03:16:35.203Z,70.80
2017-04-12T03:17:35.932Z,71.40
2017-04-12T03:18:35.815Z,71.40
2017-04-12T03:19:35.764Z,71.00
2017-04-12T03:20:35.653Z,71.40
2017-04-12T03:21:35.561Z,71.10
2017-04-12T03:22:35.486Z,71.60
2017-04-12T03:23:35.401Z,71.40
2017-04-12T03:24:35.373Z,71.30
2017-04-12T03:25:35.321Z,71.20
2017-04-12T03:27:35.322Z,71.60
2017-04-12T03:28:35.224Z,71.80
2017-04-12T03:29:35.112Z,71.60
2017-04-12T03:30:35.037Z,71.30
2017-04-12T03:31:34.969Z,71.90
2017-04-12T03:32:34.876Z,71.80
2017-04-12T03:33:34.790Z,71.60
2017-04-12T03:34:35.550Z,71.70
2017-04-12T03:35:35.509Z,71.90
2017-04-12T03:36:35.456Z,71.70
2017-04-12T03:37:35.391Z,72.20
2017-04-12T03:38:35.310Z,72.30
2017-04-12T03:39:35.203Z,72.30
2017-04-12T03:40:35.117Z,72.20
2017-04-12T03:42:35.153Z,72.10
2017-04-12T03:43:35.864Z,72.60
2017-04-12T03:44:35.794Z,72.50
2017-04-12T03:45:35.767Z,72.70
2017-04-12T03:46:35.669Z,72.60
2017-04-12T03:47:35.716Z,72.00
2017-04-12T03:48:36.374Z,72.20
2017-04-12T03:49:36.269Z,72.40
2017-04-12T03:50:36.218Z,72.30
2017-04-12T03:51:36.127Z,72.60
2017-04-12T03:52:36.040Z,72.40
2017-04-12T03:53:36.706Z,72.60
2017-04-12T03:54:37.453Z,72.20
2017-04-12T03:55:37.426Z,72.30
2017-04-12T03:56:37.329Z,72.40
2017-04-12T03:57:37.256Z,72.30
2017-04-12T03:58:37.161Z,71.90
2017-04-12T03:59:37.114Z,72.10
2017-04-12T04:00:37.826Z,71.80
2017-04-12T04:01:37.740Z,71.60
2017-04-12T04:02:38.406Z,72.00
2017-04-12T04:03:38.362Z,71.80
2017-04-12T04:04:39.051Z,71.90
2017-04-12T04:05:38.997Z,72.00
2017-04-12T04:06:38.950Z,71.80
2017-04-12T04:07:38.856Z,72.10
2017-04-12T04:08:38.769Z,72.30
2017-04-12T04:09:38.685Z,72.00
2017-04-12T04:10:38.625Z,72.10
2017-04-12T04:11:39.285Z,71.70
2017-04-12T04:12:39.177Z,72.40
2017-04-12T04:13:39.115Z,72.10
2017-04-12T04:14:39.089Z,72.30
2017-04-12T04:15:38.989Z,72.40
2017-04-12T04:16:38.930Z,71.80
2017-04-12T04:17:38.847Z,71.90
2017-04-12T04:18:38.749Z,71.80
2017-04-12T04:19:38.649Z,72.30
2017-04-12T04:20:38.552Z,72.20
2017-04-12T04:21:38.606Z,72.00
2017-04-12T04:22:39.261Z,71.90
2017-04-12T04:23:39.165Z,71.80
2017-04-12T04:24:39.108Z,71.70
2017-04-12T04:25:39.027Z,71.80
2017-04-12T04:26:39.721Z,71.70
2017-04-12T04:27:39.654Z,71.70
2017-04-12T04:28:40.289Z,71.30
2017-04-12T04:29:40.181Z,71.50
2017-04-12T04:31:01.918Z,71.20
2017-04-12T04:32:10.756Z,71.00
2017-04-12T04:33:10.684Z,71.20
2017-04-12T04:34:10.581Z,71.20
2017-04-12T04:35:10.460Z,70.70
2017-04-12T04:36:10.354Z,71.20
2017-04-12T04:37:10.286Z,71.00
2017-04-12T04:38:10.973Z,70.20
2017-04-12T04:39:10.912Z,70.90
2017-04-12T04:40:10.790Z,71.20
2017-04-12T04:41:10.783Z,70.80
2017-04-12T04:42:11.438Z,70.70
2017-04-12T04:43:11.314Z,70.60
2017-04-12T04:44:11.192Z,70.90
2017-04-12T04:45:11.057Z,70.40
2017-04-12T04:46:10.957Z,70.90
2017-04-12T04:47:10.893Z,71.00
2017-04-12T04:48:10.785Z,70.70
2017-04-12T04:49:10.675Z,71.00
2017-04-12T04:50:10.627Z,70.60
2017-04-12T04:51:11.248Z,71.00
2017-04-12T04:52:11.901Z,70.80
2017-04-12T04:53:11.797Z,71.00
2017-04-12T04:54:11.791Z,71.30
2017-04-12T04:55:12.414Z,71.20
2017-04-12T04:56:13.049Z,70.80
2017-04-12T04:57:12.990Z,71.00
2017-04-12T04:58:12.944Z,70.90
2017-04-12T04:59:13.569Z,71.10
2017-04-12T05:00:13.505Z,70.90
2017-04-12T05:01:13.396Z,70.80
2017-04-12T05:02:13.379Z,70.10
2017-04-12T05:03:14.029Z,70.50
2017-04-12T05:04:13.917Z,70.60
2017-04-12T05:05:13.845Z,70.30
2017-04-12T05:06:14.629Z,70.70
2017-04-12T05:07:15.330Z,70.20
2017-04-12T05:08:15.233Z,70.30
2017-04-12T05:09:15.149Z,70.70
2017-04-12T05:10:15.046Z,70.60
2017-04-12T05:11:15.795Z,70.40
2017-04-12T05:12:15.680Z,70.90
2017-04-12T05:13:16.333Z,71.10
2017-04-12T05:14:16.223Z,70.60
2017-04-12T05:15:16.105Z,70.80
2017-04-12T05:16:16.009Z,70.90
2017-04-12T05:17:15.936Z,70.80
2017-04-12T05:18:16.212Z,70.90
2017-04-12T05:19:16.095Z,70.80
2017-04-12T05:20:16.009Z,71.20
2017-04-12T05:21:15.881Z,71.70
2017-04-12T05:22:15.774Z,71.40
2017-04-12T05:23:15.771Z,71.70
2017-04-12T05:24:15.780Z,72.40
2017-04-12T05:25:16.441Z,71.50
2017-04-12T05:26:16.342Z,71.10
2017-04-12T05:27:16.229Z,71.20
2017-04-12T05:28:16.133Z,71.50
2017-04-12T05:29:16.038Z,71.30
2017-04-12T05:30:15.921Z,71.60
2017-04-12T05:31:16.177Z,71.20
2017-04-12T05:32:16.066Z,71.80
2017-04-12T05:33:16.147Z,71.60
2017-04-12T05:34:16.801Z,71.30
2017-04-12T05:35:17.433Z,71.60
2017-04-12T05:36:17.409Z,71.20
2017-04-12T05:37:17.349Z,71.80
2017-04-12T05:38:17.274Z,71.70
2017-04-12T05:39:17.180Z,71.80
2017-04-12T05:40:17.074Z,71.90
2017-04-12T05:41:16.991Z,72.00
2017-04-12T05:42:16.913Z,72.00
2017-04-12T05:43:17.599Z,72.20
2017-04-12T05:44:17.519Z,72.00
2017-04-12T05:45:17.406Z,72.40
2017-04-12T05:46:17.298Z,72.40
2017-04-12T05:47:17.193Z,72.10
2017-04-12T05:48:17.152Z,72.40
2017-04-12T05:49:17.854Z,72.50
2017-04-12T05:50:17.738Z,72.30
2017-04-12T05:51:17.777Z,72.70
2017-04-12T05:52:18.069Z,72.60
2017-04-12T05:53:18.001Z,72.50
2017-04-12T05:54:18.067Z,72.00
2017-04-12T05:55:18.724Z,72.00
2017-04-12T05:56:18.692Z,72.20
2017-04-12T05:57:18.573Z,72.20
2017-04-12T05:58:18.550Z,72.40
2017-04-12T05:59:19.182Z,72.60
2017-04-12T06:00:19.637Z,72.60
2017-04-12T06:01:19.526Z,72.20
2017-04-12T06:02:19.429Z,72.50
2017-04-12T06:03:19.369Z,72.50
2017-04-12T06:04:19.293Z,72.20
2017-04-12T06:05:19.209Z,72.20
2017-04-12T06:06:19.862Z,72.10
2017-04-12T06:07:19.854Z,72.30
2017-04-12T06:08:20.509Z,72.10
2017-04-12T06:09:20.388Z,72.20
2017-04-12T06:10:20.289Z,72.60
2017-04-12T06:11:20.188Z,73.20
2017-04-12T06:12:20.073Z,73.30
2017-04-12T06:13:20.758Z,72.40
2017-04-12T06:14:20.765Z,72.30
2017-04-12T06:15:20.728Z,72.10
2017-04-12T06:16:21.961Z,72.10
2017-04-12T06:17:21.922Z,72.20
2017-04-12T06:18:21.850Z,72.30
2017-04-12T06:19:21.742Z,72.20
2017-04-12T06:20:21.689Z,72.00
2017-04-12T06:21:22.329Z,71.80
2017-04-12T06:22:22.244Z,71.50
2017-04-12T06:23:22.213Z,71.60
2017-04-12T06:24:22.841Z,71.60
2017-04-12T06:25:22.749Z,71.50
2017-04-12T06:26:22.648Z,71.40
2017-04-12T06:27:22.549Z,71.30
2017-04-12T06:28:22.489Z,71.00
2017-04-12T06:29:22.369Z,70.50
2017-04-12T06:30:22.285Z,70.90
2017-04-12T06:31:22.826Z,70.40
2017-04-12T06:32:22.729Z,70.10
2017-04-12T06:33:22.650Z,70.20
2017-04-12T06:34:22.582Z,69.20
2017-04-12T06:35:23.262Z,69.60
2017-04-12T06:36:23.222Z,68.80
2017-04-12T06:37:23.277Z,68.50
2017-04-12T06:38:23.203Z,68.60
2017-04-12T06:39:23.178Z,68.90
2017-04-12T06:40:23.116Z,70.30
2017-04-12T06:41:23.045Z,69.40
2017-04-12T06:42:23.680Z,70.50
2017-04-12T06:43:23.647Z,70.60
2017-04-12T06:44:23.533Z,70.50
2017-04-12T06:45:23.437Z,70.60
2017-04-12T06:46:23.391Z,70.70
2017-04-12T06:47:23.349Z,70.80
2017-04-12T06:48:23.273Z,71.00
2017-04-12T06:49:23.176Z,70.80
2017-04-12T06:50:23.078Z,70.50
2017-04-12T06:51:23.014Z,70.50
2017-04-12T06:52:22.909Z,70.00
2017-04-12T06:53:23.529Z,70.50
2017-04-12T06:54:24.265Z,69.30
2017-04-12T06:55:24.196Z,69.40
2017-04-12T06:56:24.125Z,70.30
2017-04-12T06:57:24.067Z,70.40
2017-04-12T06:58:24.749Z,69.90
2017-04-12T06:59:24.732Z,70.80
2017-04-12T07:00:24.656Z,70.80
2017-04-12T07:01:24.565Z,70.80
2017-04-12T07:02:24.571Z,69.50
2017-04-12T07:03:24.523Z,70.20
2017-04-12T07:05:24.742Z,68.80
2017-04-12T07:06:24.663Z,69.30
2017-04-12T07:07:24.576Z,68.10
2017-04-12T07:08:24.497Z,68.40
2017-04-12T07:09:24.429Z,68.20
2017-04-12T07:10:24.374Z,68.30
2017-04-12T07:11:24.398Z,67.90
2017-04-12T07:12:24.320Z,67.60
2017-04-12T07:13:24.236Z,67.90
2017-04-12T07:14:24.195Z,68.30
2017-04-12T07:15:24.233Z,68.20
2017-04-12T07:16:24.503Z,68.50
2017-04-12T07:17:25.192Z,68.70
2017-04-12T07:18:25.143Z,68.70
2017-04-12T07:19:25.097Z,69.10
2017-04-12T07:20:25.057Z,69.90
2017-04-12T07:21:25.533Z,69.10
2017-04-12T07:22:25.446Z,69.10
2017-04-12T07:23:25.342Z,69.00
2017-04-12T07:24:25.289Z,68.80
2017-04-12T07:25:25.292Z,69.00
2017-04-12T07:26:25.222Z,68.30
2017-04-12T07:27:25.545Z,67.80
2017-04-12T07:28:25.463Z,67.50
2017-04-12T07:29:25.377Z,66.90
2017-04-12T07:30:25.425Z,67.00
2017-04-12T07:31:26.050Z,66.40
2017-04-12T07:32:25.957Z,66.00
2017-04-12T07:33:25.848Z,65.80
2017-04-12T07:34:25.759Z,65.50
2017-04-12T07:35:25.760Z,64.20
2017-04-12T07:36:25.728Z,64.50
2017-04-12T07:37:25.646Z,64.00
2017-04-12T07:38:25.549Z,64.00
2017-04-12T07:39:25.488Z,63.90
2017-04-12T07:40:25.446Z,63.60
2017-04-12T07:41:25.373Z,63.70
2017-04-12T07:42:25.258Z,64.00
2017-04-12T07:43:25.176Z,64.30
2017-04-12T07:44:25.198Z,64.20
2017-04-12T07:45:25.922Z,64.50
2017-04-12T07:46:26.605Z,64.40
2017-04-12T07:47:26.664Z,64.40
2017-04-12T07:48:27.293Z,64.50
2017-04-12T07:49:27.181Z,64.90
2017-04-12T07:50:26.340Z,64.70
2017-04-12T07:51:26.229Z,64.50
2017-04-12T07:52:26.188Z,64.40
2017-04-12T07:53:26.087Z,64.40
2017-04-12T07:54:26.001Z,65.00
2017-04-12T07:55:25.961Z,65.00
2017-04-12T07:57:26.046Z,64.20
2017-04-12T07:58:25.993Z,63.80
2017-04-12T07:59:25.897Z,63.30
2017-04-12T08:00:25.933Z,62.80
2017-04-12T08:01:25.841Z,62.40
2017-04-12T08:02:25.769Z,61.00
2017-04-12T08:03:25.738Z,60.80
2017-04-12T08:04:26.385Z,60.60
2017-04-12T08:05:26.387Z,60.20
2017-04-12T08:06:26.260Z,60.20
2017-04-12T08:07:26.188Z,60.10
2017-04-12T08:08:26.806Z,60.10
2017-04-12T08:09:26.726Z,60.10
2017-04-12T08:10:26.818Z,60.00
2017-04-12T08:11:26.722Z,59.40
2017-04-12T08:12:26.701Z,59.20
2017-04-12T08:13:26.619Z,58.70
2017-04-12T08:14:26.509Z,58.50
2017-04-12T08:15:26.462Z,59.00
2017-04-12T08:16:26.456Z,59.50
2017-04-12T08:17:27.097Z,59.30
2017-04-12T08:18:27.010Z,59.60
2017-04-12T08:19:26.943Z,59.50
2017-04-12T08:20:26.913Z,59.90
2017-04-12T08:21:26.809Z,59.90
2017-04-12T08:22:26.713Z,60.40
2017-04-12T08:23:26.686Z,60.50
2017-04-12T08:24:27.310Z,60.70
2017-04-12T08:25:27.253Z,61.00
2017-04-12T08:26:27.182Z,60.80
2017-04-12T08:27:27.108Z,60.50
2017-04-12T08:28:26.998Z,60.20
2017-04-12T08:29:26.905Z,60.40
2017-04-12T08:30:26.910Z,60.30
2017-04-12T08:31:26.892Z,60.50
2017-04-12T08:32:26.801Z,60.30
2017-04-12T08:33:26.702Z,60.30
2017-04-12T08:34:26.776Z,59.80
2017-04-12T08:35:27.414Z,60.00
2017-04-12T08:36:27.337Z,59.80
2017-04-12T08:37:27.240Z,60.00
2017-04-12T08:38:27.168Z,60.50
2017-04-12T08:39:27.077Z,60.90
2017-04-12T08:40:26.977Z,60.80
2017-04-12T08:41:26.911Z,60.90
2017-04-12T08:42:26.846Z,61.00
2017-04-12T08:43:26.740Z,61.10
2017-04-12T08:44:26.712Z,60.80
2017-04-12T08:45:26.645Z,60.50
2017-04-12T08:46:27.367Z,60.30
2017-04-12T08:47:28.024Z,59.90
2017-04-12T08:48:27.952Z,59.90
2017-04-12T08:49:27.882Z,59.80
2017-04-12T08:50:28.557Z,59.60
2017-04-12T08:51:28.486Z,59.70
2017-04-12T08:52:28.403Z,59.20
2017-04-12T08:53:28.293Z,58.90
2017-04-12T08:54:28.229Z,58.70
2017-04-12T08:55:28.181Z,58.70
2017-04-12T08:56:28.133Z,58.30
2017-04-12T08:57:28.789Z,58.60
2017-04-12T08:58:28.708Z,58.70
2017-04-12T08:59:28.680Z,58.60
2017-04-12T09:00:29.329Z,58.70
2017-04-12T09:01:29.408Z,58.30
2017-04-12T09:02:29.345Z,58.50
2017-04-12T09:03:29.513Z,58.20
2017-04-12T09:04:30.165Z,58.60
2017-04-12T09:05:30.087Z,58.60
2017-04-12T09:06:30.021Z,58.60
2017-04-12T09:07:29.921Z,58.40
2017-04-12T09:08:29.987Z,58.10
2017-04-12T09:09:29.912Z,58.30
2017-04-12T09:10:29.833Z,58.30
2017-04-12T09:11:29.853Z,58.60
2017-04-12T09:12:29.770Z,58.50
2017-04-12T09:13:30.887Z,58.10
2017-04-12T09:14:30.897Z,57.70
2017-04-12T09:15:30.825Z,57.60
2017-04-12T09:16:30.788Z,56.50
2017-04-12T09:17:30.745Z,55.90
2017-04-12T09:18:30.672Z,55.30
2017-04-12T09:19:30.595Z,55.00
2017-04-12T09:20:30.509Z,54.40
2017-04-12T09:21:30.470Z,55.20
2017-04-12T09:22:31.196Z,55.30
2017-04-12T09:23:31.129Z,55.20
2017-04-12T09:24:31.029Z,55.00
2017-04-12T09:25:30.936Z,54.50
2017-04-12T09:26:30.855Z,54.10
2017-04-12T09:27:30.773Z,54.10
2017-04-12T09:28:30.717Z,53.90
2017-04-12T09:29:30.637Z,53.90
2017-04-12T09:30:30.549Z,53.80
2017-04-12T09:31:30.478Z,53.90
2017-04-12T09:32:30.368Z,54.00
2017-04-12T09:33:30.351Z,54.70
2017-04-12T09:34:30.254Z,54.90
2017-04-12T09:35:30.218Z,54.90
2017-04-12T09:36:30.921Z,55.20
2017-04-12T09:37:30.840Z,55.30
2017-04-12T09:38:31.161Z,55.10
2017-04-12T09:39:37.637Z,55.00
2017-04-12T09:40:37.617Z,55.40
2017-04-12T09:41:37.549Z,55.00
2017-04-12T09:42:37.774Z,54.20
2017-04-12T09:43:38.682Z,53.50
2017-04-12T09:44:39.330Z,52.00
2017-04-12T09:45:39.241Z,52.00
2017-04-12T09:46:39.253Z,52.60
2017-04-12T09:47:39.982Z,51.30
2017-04-12T09:48:39.964Z,51.40
2017-04-12T09:49:39.881Z,51.00
2017-04-12T09:50:39.826Z,50.70
2017-04-12T09:51:39.778Z,50.10
2017-04-12T09:52:39.725Z,49.60
2017-04-12T09:53:39.705Z,50.20
2017-04-12T09:54:39.676Z,50.30
2017-04-12T09:55:40.348Z,50.20
2017-04-12T09:56:40.301Z,50.30
2017-04-12T09:57:40.278Z,50.20
2017-04-12T09:58:40.183Z,49.90
2017-04-12T09:59:40.144Z,50.10
2017-04-12T10:00:40.073Z,50.00
2017-04-12T10:01:40.064Z,50.40
2017-04-12T10:02:40.005Z,51.10
2017-04-12T10:03:39.922Z,51.80
2017-04-12T10:04:39.868Z,52.20
2017-04-12T10:05:39.817Z,52.40
2017-04-12T10:06:39.745Z,52.60
2017-04-12T10:07:39.652Z,53.00
2017-04-12T10:08:39.592Z,52.90
2017-04-12T10:09:39.538Z,53.50
2017-04-12T10:10:39.452Z,53.40
2017-04-12T10:11:39.371Z,53.10
2017-04-12T10:13:39.361Z,53.70
2017-04-12T10:14:39.256Z,53.70
2017-04-12T10:15:39.234Z,53.60
2017-04-12T10:16:39.192Z,53.30
2017-04-12T10:17:39.141Z,52.80
2017-04-12T10:18:39.126Z,53.40
2017-04-12T10:19:39.849Z,52.70
2017-04-12T10:20:39.765Z,52.90
2017-04-12T10:21:39.680Z,53.00
2017-04-12T10:22:39.590Z,52.80
2017-04-12T10:23:39.491Z,52.30
2017-04-12T10:24:39.401Z,52.50
2017-04-12T10:25:39.341Z,52.10
2017-04-12T10:26:39.265Z,51.50
2017-04-12T10:27:39.199Z,52.20
2017-04-12T10:28:39.106Z,52.60
2017-04-12T10:29:39.006Z,52.60
2017-04-12T10:30:38.930Z,52.50
2017-04-12T10:31:38.834Z,52.60
2017-04-12T10:32:38.770Z,52.60
2017-04-12T10:33:38.718Z,52.30
2017-04-12T10:34:38.692Z,53.00
2017-04-12T10:36:38.734Z,52.50
2017-04-12T10:37:39.416Z,52.50
2017-04-12T10:38:39.309Z,52.60
2017-04-12T10:39:39.425Z,52.80
2017-04-12T10:40:39.357Z,52.90
2017-04-12T10:41:39.271Z,52.60
2017-04-12T10:42:39.224Z,52.30
2017-04-12T10:43:39.145Z,53.20
2017-04-12T10:44:39.071Z,53.20
2017-04-12T10:45:38.985Z,53.40
2017-04-12T10:46:38.889Z,53.40
2017-04-12T10:47:39.072Z,53.50
2017-04-12T10:48:38.990Z,53.50
2017-04-12T10:49:38.905Z,53.20
2017-04-12T10:50:39.157Z,53.60
2017-04-12T10:51:39.102Z,53.50
2017-04-12T10:52:39.005Z,53.50
2017-04-12T10:53:38.976Z,53.70
2017-04-12T10:54:38.929Z,53.80
2017-04-12T10:55:38.858Z,53.50
2017-04-12T10:56:39.548Z,53.50
2017-04-12T10:57:39.513Z,53.30
2017-04-12T10:58:39.764Z,52.80
2017-04-12T10:59:39.693Z,52.60
2017-04-12T11:00:40.456Z,53.10
2017-04-12T11:01:40.393Z,52.60
2017-04-12T11:02:40.300Z,52.20
2017-04-12T11:03:40.218Z,52.40
2017-04-12T11:04:40.117Z,52.50
2017-04-12T11:05:40.106Z,52.80
2017-04-12T11:06:40.053Z,52.80
2017-04-12T11:07:40.704Z,52.90
2017-04-12T11:08:40.607Z,52.80
2017-04-12T11:09:40.508Z,52.00
2017-04-12T11:10:40.616Z,52.00
2017-04-12T11:11:41.289Z,52.10
2017-04-12T11:12:41.192Z,52.50
2017-04-12T11:13:41.061Z,52.50
2017-04-12T11:14:40.987Z,52.30
2017-04-12T11:15:41.060Z,52.10
2017-04-12T11:16:41.709Z,52.10
2017-04-12T11:17:41.741Z,52.40
2017-04-12T11:18:41.697Z,52.50
2017-04-12T11:19:41.601Z,52.30
2017-04-12T11:20:41.556Z,53.40
2017-04-12T11:21:41.526Z,52.60
2017-04-12T11:22:41.519Z,52.40
2017-04-12T11:23:41.624Z,52.30
2017-04-12T11:24:41.685Z,52.10
2017-04-12T11:25:41.654Z,51.80
2017-04-12T11:26:41.617Z,51.60
2017-04-12T11:27:41.555Z,52.00
2017-04-12T11:28:41.499Z,52.30
2017-04-12T11:29:41.393Z,52.70
2017-04-12T11:30:41.340Z,53.00
2017-04-12T11:31:41.989Z,53.50
2017-04-12T11:32:41.868Z,53.60
2017-04-12T11:33:42.617Z,53.40
2017-04-12T11:34:43.251Z,53.30
2017-04-12T11:35:43.196Z,53.30
2017-04-12T11:36:43.096Z,53.20
2017-04-12T11:37:42.990Z,53.20
2017-04-12T11:38:42.920Z,53.00
2017-04-12T11:39:42.881Z,52.60
2017-04-12T11:40:42.822Z,52.50
2017-04-12T11:41:43.853Z,51.80
2017-04-12T11:42:43.742Z,51.90
2017-04-12T11:43:43.648Z,52.10
2017-04-12T11:44:43.591Z,52.20
2017-04-12T11:45:44.277Z,53.10
2017-04-12T11:46:44.214Z,52.90
2017-04-12T11:47:44.858Z,53.20
2017-04-12T11:48:44.763Z,53.30
2017-04-12T11:49:44.721Z,53.60
2017-04-12T11:50:44.672Z,53.40
2017-04-12T11:51:44.671Z,54.30
2017-04-12T11:52:44.669Z,54.70
2017-04-12T11:53:45.354Z,55.20
2017-04-12T11:54:45.235Z,55.50
2017-04-12T11:55:45.126Z,55.70
2017-04-12T11:56:45.082Z,55.60
2017-04-12T11:57:44.973Z,55.30
2017-04-12T11:58:44.932Z,55.10
2017-04-12T11:59:44.854Z,55.40
2017-04-12T12:00:44.887Z,55.50
2017-04-12T12:01:44.821Z,55.40
2017-04-12T12:02:45.571Z,56.00
2017-04-12T12:03:45.461Z,55.30
2017-04-12T12:04:45.445Z,55.10
2017-04-12T12:05:45.386Z,55.40
2017-04-12T12:06:45.285Z,55.20
2017-04-12T12:07:45.292Z,55.30
2017-04-12T12:08:45.156Z,55.10
2017-04-12T12:09:45.132Z,55.10
2017-04-12T12:10:45.013Z,55.40
2017-04-12T12:11:44.961Z,55.50
2017-04-12T12:12:44.889Z,55.60
2017-04-12T12:13:44.797Z,55.80
2017-04-12T12:14:45.593Z,55.70
2017-04-12T12:15:45.573Z,55.60
2017-04-12T12:16:45.566Z,56.20
2017-04-12T12:17:45.509Z,55.60
2017-04-12T12:18:45.413Z,55.80
2017-04-12T12:19:45.304Z,56.10
2017-04-12T12:20:45.277Z,56.20
2017-04-12T12:21:45.172Z,56.20
2017-04-12T12:22:45.079Z,56.90
2017-04-12T12:23:44.970Z,56.30
2017-04-12T12:24:44.874Z,56.20
2017-04-12T12:25:44.829Z,56.20
2017-04-12T12:26:44.743Z,56.10
2017-04-12T12:27:44.677Z,56.60
2017-04-12T12:28:44.592Z,56.30
2017-04-12T12:29:45.225Z,56.90
2017-04-12T12:30:45.130Z,56.70
2017-04-12T12:31:45.797Z,56.90
2017-04-12T12:32:45.872Z,56.80
2017-04-12T12:33:46.512Z,56.40
2017-04-12T12:34:46.431Z,56.20
2017-04-12T12:35:46.384Z,56.10
2017-04-12T12:36:47.048Z,56.40
2017-04-12T12:37:47.028Z,56.40
2017-04-12T12:38:46.983Z,56.00
2017-04-12T12:39:46.928Z,56.00
2017-04-12T12:40:46.842Z,56.00
2017-04-12T12:41:46.751Z,56.20
2017-04-12T12:42:46.686Z,56.10
2017-04-12T12:43:46.642Z,56.00
2017-04-12T12:44:47.352Z,56.00
2017-04-12T12:45:47.273Z,56.00
2017-04-12T12:46:47.921Z,56.10
2017-04-12T12:47:47.957Z,56.00
2017-04-12T12:48:47.941Z,55.70
2017-04-12T12:49:47.840Z,55.70
2017-04-12T12:50:47.789Z,55.70
2017-04-12T12:51:47.693Z,55.60
2017-04-12T12:52:47.585Z,55.70
2017-04-12T12:53:47.521Z,56.10
2017-04-12T12:54:47.450Z,55.70
2017-04-12T12:55:48.104Z,55.50
2017-04-12T12:56:48.002Z,55.20
2017-04-12T12:57:47.945Z,54.80
2017-04-12T12:58:47.841Z,54.40
2017-04-12T12:59:47.892Z,54.40